Time;durP1;ratioP1;P1;durP2;ratioP2;P2;SDS_P1;SDS_P2;PMS_P1;PMS_P2;Temp;Humidity;BMP_temperature;BMP_pressure;BME280_temperature;BME280_humidity;BME280_pressure;Samples;Min_cycle;Max_cycle;Signal;HPM_P1;HPM_P2
2022/09/05 00:02:11;;;;;;;15.30;9.52;;;;;;;-145.67;100.00;66521.78;4944634;28;20043;-67
2022/09/05 00:04:59;;;;;;;14.63;8.88;;;;;;;-145.67;100.00;66521.78;4941429;28;20043;-65
2022/09/05 00:07:49;;;;;;;12.88;8.63;;;;;;;-145.67;100.00;66521.78;4944330;28;20041;-66
2022/09/05 00:10:23;;;;;;;12.73;8.55;;;;;;;-145.67;100.00;66521.78;4940854;28;20041;-65
2022/09/05 00:12:49;;;;;;;14.10;8.50;;;;;;;-145.67;100.00;66521.78;4920825;28;20038;-67
2022/09/05 00:15:42;;;;;;;11.77;8.30;;;;;;;-145.67;100.00;66521.78;4927370;28;20057;-66
2022/09/05 00:18:29;;;;;;;13.88;8.55;;;;;;;-145.67;100.00;66521.78;4944144;28;20031;-66
2022/09/05 00:21:16;;;;;;;13.57;7.55;;;;;;;-145.67;100.00;66521.78;4921629;28;20038;-65
2022/09/05 00:23:54;;;;;;;12.98;7.68;;;;;;;-145.67;100.00;66521.78;4942881;28;20620;-66
2022/09/05 00:26:30;;;;;;;12.65;7.30;;;;;;;-145.67;100.00;66521.78;4943356;28;20097;-66
2022/09/05 00:29:00;;;;;;;10.68;7.07;;;;;;;-145.67;100.00;66521.78;4944094;28;20038;-66
2022/09/05 00:31:28;;;;;;;11.45;7.45;;;;;;;-145.67;100.00;66521.78;4908672;28;20035;-68
2022/09/05 00:34:06;;;;;;;10.43;7.40;;;;;;;-145.67;100.00;66521.78;4942322;28;20039;-67
2022/09/05 00:36:50;;;;;;;11.40;7.18;;;;;;;-145.67;100.00;66521.78;4943764;28;20130;-67
2022/09/05 00:39:24;;;;;;;11.35;7.20;;;;;;;-145.67;100.00;66521.78;4924834;28;20034;-67
2022/09/05 00:41:51;;;;;;;12.50;6.88;;;;;;;-145.67;100.00;66521.78;4922061;28;20050;-66
2022/09/05 00:44:23;;;;;;;11.30;6.53;;;;;;;-145.67;100.00;66521.78;4942018;28;20051;-66
2022/09/05 00:47:22;;;;;;;11.25;6.20;;;;;;;-145.67;100.00;66521.78;4906054;28;20895;-66
2022/09/05 00:49:54;;;;;;;8.88;5.78;;;;;;;-145.67;100.00;66521.78;4943580;28;20392;-66
2022/09/05 00:52:40;;;;;;;8.80;5.22;;;;;;;-145.67;100.00;66521.78;4924308;28;20030;-67
2022/09/05 00:55:19;;;;;;;11.05;5.45;;;;;;;-145.67;100.00;66521.78;4940417;28;20047;-67
2022/09/05 00:57:57;;;;;;;8.88;5.35;;;;;;;-145.67;100.00;66521.78;4940806;28;20118;-66
2022/09/05 01:00:43;;;;;;;9.45;4.90;;;;;;;-145.67;100.00;66521.78;4943395;28;22265;-66
2022/09/05 01:03:11;;;;;;;8.80;5.15;;;;;;;-145.67;100.00;66521.78;4941680;28;20061;-66
2022/09/05 01:06:00;;;;;;;10.05;4.60;;;;;;;-145.67;100.00;66521.78;4943735;28;20043;-66
2022/09/05 01:08:29;;;;;;;8.00;4.22;;;;;;;-145.67;100.00;66521.78;4921918;28;20067;-66
2022/09/05 01:11:23;;;;;;;8.13;4.22;;;;;;;-145.67;100.00;66521.78;4943252;28;20039;-66
2022/09/05 01:14:01;;;;;;;7.97;4.43;;;;;;;-145.67;100.00;66521.78;4941779;28;20035;-67
2022/09/05 01:17:04;;;;;;;6.40;4.25;;;;;;;-145.67;100.00;66521.78;4921067;28;20046;-66
2022/09/05 01:19:35;;;;;;;9.68;4.72;;;;;;;-145.67;100.00;66521.78;4942119;28;20419;-66
2022/09/05 01:22:52;;;;;;;10.00;5.75;;;;;;;-145.67;100.00;66521.78;4942455;28;20050;-67
2022/09/05 01:25:33;;;;;;;9.90;5.55;;;;;;;-145.67;100.00;66521.78;4909767;28;20039;-66
2022/09/05 01:28:13;;;;;;;8.07;4.95;;;;;;;-145.67;100.00;66521.78;4945983;28;20042;-67
2022/09/05 01:30:45;;;;;;;8.23;4.53;;;;;;;-145.67;100.00;66521.78;4929965;28;20361;-68
2022/09/05 01:33:13;;;;;;;;;;;;;;;-145.67;100.00;66521.78;4946151;28;20133;-66
2022/09/05 01:35:57;;;;;;;9.10;4.80;;;;;;;-145.67;100.00;66521.78;4944883;28;19926;-67
2022/09/05 01:38:40;;;;;;;7.35;5.47;;;;;;;-145.67;100.00;66521.78;4929969;28;20570;-67
2022/09/05 01:41:32;;;;;;;9.63;5.72;;;;;;;-145.67;100.00;66521.78;4945926;28;20122;-66
2022/09/05 01:44:25;;;;;;;8.63;5.63;;;;;;;-145.67;100.00;66521.78;4945192;28;20082;-66
2022/09/05 01:47:05;;;;;;;9.13;6.30;;;;;;;-145.67;100.00;66521.78;4947001;28;20050;-67
2022/09/05 01:50:12;;;;;;;8.75;6.80;;;;;;;-145.67;100.00;66521.78;4944254;28;20046;-66
2022/09/05 01:52:44;;;;;;;11.52;7.72;;;;;;;-145.67;100.00;66521.78;4944683;28;20705;-66
2022/09/05 01:55:22;;;;;;;14.98;8.15;;;;;;;-145.67;100.00;66521.78;4928892;28;20043;-66
2022/09/05 01:58:08;;;;;;;12.98;8.02;;;;;;;-145.67;100.00;66521.78;4929824;28;20644;-65
2022/09/05 02:01:01;;;;;;;13.15;8.10;;;;;;;-145.67;100.00;66521.78;4928265;28;20042;-67
2022/09/05 02:03:26;;;;;;;12.45;8.32;;;;;;;-145.67;100.00;66521.78;4928435;28;20120;-66
2022/09/05 02:05:57;;;;;;;13.52;8.90;;;;;;;-145.67;100.00;66521.78;4942044;28;22291;-66
2022/09/05 02:08:28;;;;;;;14.77;8.73;;;;;;;-145.67;100.00;66521.78;4944805;28;20046;-66
2022/09/05 02:11:05;;;;;;;12.35;7.80;;;;;;;-145.67;100.00;66521.78;4945502;28;20058;-66
2022/09/05 02:13:34;;;;;;;14.35;8.00;;;;;;;-145.67;100.00;66521.78;4946777;28;20038;-67
2022/09/05 02:16:24;;;;;;;16.40;7.53;;;;;;;-145.67;100.00;66521.78;4943518;28;20043;-66
2022/09/05 02:18:52;;;;;;;14.07;7.45;;;;;;;-145.67;100.00;66521.78;4944456;28;20058;-66
2022/09/05 02:21:23;;;;;;;13.55;6.63;;;;;;;-145.67;100.00;66521.78;4944563;28;20066;-66
2022/09/05 02:24:20;;;;;;;9.68;6.28;;;;;;;-145.67;100.00;66521.78;4909664;28;20074;-67
2022/09/05 02:27:21;;;;;;;10.57;5.95;;;;;;;-145.67;100.00;66521.78;4911900;28;20049;-66
2022/09/05 02:29:56;;;;;;;10.10;6.00;;;;;;;-145.67;100.00;66521.78;4943531;28;20752;-66
2022/09/05 02:32:41;;;;;;;11.30;5.63;;;;;;;-145.67;100.00;66521.78;4945456;28;20046;-66
2022/09/05 02:35:17;;;;;;;10.48;5.13;;;;;;;-145.67;100.00;66521.78;4944189;28;20049;-66
2022/09/05 02:38:04;;;;;;;8.07;4.82;;;;;;;-145.67;100.00;66521.78;4942184;28;20462;-66
2022/09/05 02:40:35;;;;;;;10.30;5.57;;;;;;;-145.67;100.00;66521.78;4943789;28;20085;-66
2022/09/05 02:43:10;;;;;;;8.27;5.00;;;;;;;-145.67;100.00;66521.78;4946315;28;20061;-66
2022/09/05 02:45:58;;;;;;;11.38;5.43;;;;;;;-145.67;100.00;66521.78;4945875;28;20031;-65
2022/09/05 02:48:42;;;;;;;7.72;5.60;;;;;;;-145.67;100.00;66521.78;4941653;28;20124;-67
2022/09/05 02:51:15;;;;;;;14.32;5.63;;;;;;;-145.67;100.00;66521.78;4944367;28;20065;-67
2022/09/05 02:53:45;;;;;;;10.82;5.28;;;;;;;-145.67;100.00;66521.78;4921666;28;20061;-66
2022/09/05 02:56:26;;;;;;;12.02;5.22;;;;;;;-145.67;100.00;66521.78;4934964;28;20043;-66
2022/09/05 02:59:09;;;;;;;10.43;5.60;;;;;;;-145.67;100.00;66521.78;4929443;28;20039;-67
2022/09/05 03:01:37;;;;;;;9.93;5.30;;;;;;;-145.67;100.00;66521.78;4927311;28;20686;-67
2022/09/05 03:04:13;;;;;;;13.15;4.97;;;;;;;-145.67;100.00;66521.78;4924860;28;20051;-66
2022/09/05 03:06:53;;;;;;;9.55;5.00;;;;;;;-145.67;100.00;66521.78;4927795;28;20530;-67
2022/09/05 03:09:29;;;;;;;8.68;4.85;;;;;;;-145.67;100.00;66521.78;4923729;28;20071;-67
2022/09/05 03:12:26;;;;;;;10.98;5.05;;;;;;;-145.67;100.00;66521.78;4921002;28;20086;-67
2022/09/05 03:15:22;;;;;;;9.52;4.90;;;;;;;-145.67;100.00;66521.78;4926615;28;22160;-67
2022/09/05 03:18:09;;;;;;;8.77;4.78;;;;;;;-145.67;100.00;66521.78;4926113;28;20035;-67
2022/09/05 03:21:00;;;;;;;9.32;4.82;;;;;;;-145.67;100.00;66521.78;4925113;28;20182;-67
2022/09/05 03:23:37;;;;;;;10.48;5.05;;;;;;;-145.67;100.00;66521.78;4924527;28;22567;-66
2022/09/05 03:26:21;;;;;;;10.02;4.75;;;;;;;-145.67;100.00;66521.78;4939792;28;20035;-67
2022/09/05 03:29:24;;;;;;;8.40;4.72;;;;;;;-145.67;100.00;66521.78;4925664;28;20035;-67
2022/09/05 03:32:20;;;;;;;8.77;4.28;;;;;;;-145.67;100.00;66521.78;4941104;28;20771;-66
2022/09/05 03:35:09;;;;;;;6.82;3.80;;;;;;;-145.67;100.00;66521.78;4925411;28;20043;-68
2022/09/05 03:37:49;;;;;;;8.23;3.47;;;;;;;-145.67;100.00;66521.78;4939086;28;20047;-67
2022/09/05 03:40:20;;;;;;;8.18;3.75;;;;;;;-145.67;100.00;66521.78;4939908;28;21011;-66
2022/09/05 03:43:15;;;;;;;5.50;3.45;;;;;;;-145.67;100.00;66521.78;4925250;28;20047;-67
2022/09/05 03:45:51;;;;;;;6.65;2.97;;;;;;;-145.67;100.00;66521.78;4939911;28;20114;-66
2022/09/05 03:48:44;;;;;;;10.05;3.80;;;;;;;-145.67;100.00;66521.78;4917800;28;20062;-68
2022/09/05 03:51:15;;;;;;;7.00;3.42;;;;;;;-145.67;100.00;66521.78;4922591;28;20122;-67
2022/09/05 03:54:01;;;;;;;;;;;;;;;-145.67;100.00;66521.78;4939267;28;20051;-66
2022/09/05 03:56:51;;;;;;;6.78;3.92;;;;;;;-145.67;100.00;66521.78;4922778;28;20280;-66
2022/09/05 03:59:34;;;;;;;7.15;4.20;;;;;;;-145.67;100.00;66521.78;4921919;28;20090;-67
2022/09/05 04:02:03;;;;;;;8.63;4.25;;;;;;;-145.67;100.00;66521.78;4922503;28;20072;-67
2022/09/05 04:04:42;;;;;;;7.85;4.28;;;;;;;-145.67;100.00;66521.78;4936732;28;20039;-68
2022/09/05 04:07:17;;;;;;;8.82;4.20;;;;;;;-145.67;100.00;66521.78;4921870;28;20063;-68
2022/09/05 04:09:54;;;;;;;7.03;3.92;;;;;;;-145.67;100.00;66521.78;4939038;28;20035;-67
2022/09/05 04:12:44;;;;;;;6.32;4.00;;;;;;;-145.67;100.00;66521.78;4923932;28;20054;-66
2022/09/05 04:15:29;;;;;;;7.57;3.92;;;;;;;-145.67;100.00;66521.78;4938626;28;20063;-67
2022/09/05 04:18:04;;;;;;;9.88;4.20;;;;;;;-145.67;100.00;66521.78;4926784;28;21511;-67
2022/09/05 04:20:38;;;;;;;7.63;3.75;;;;;;;-145.67;100.00;66521.78;4902949;28;20405;-66
2022/09/05 04:23:28;;;;;;;7.95;4.00;;;;;;;-145.67;100.00;66521.78;4939565;28;20055;-66
2022/09/05 04:25:59;;;;;;;6.70;3.63;;;;;;;-145.67;100.00;66521.78;4924740;28;20047;-67
2022/09/05 04:28:42;;;;;;;8.50;4.28;;;;;;;-145.67;100.00;66521.78;4924443;28;20042;-66
2022/09/05 04:31:45;;;;;;;7.68;4.07;;;;;;;-145.67;100.00;66521.78;4924607;28;20511;-66
2022/09/05 04:34:24;;;;;;;8.60;4.40;;;;;;;-145.67;100.00;66521.78;4924701;28;20688;-67
2022/09/05 04:37:06;;;;;;;7.15;4.50;;;;;;;-145.67;100.00;66521.78;4922370;28;20039;-67
2022/09/05 04:39:33;;;;;;;9.75;4.70;;;;;;;-145.67;100.00;66521.78;4922944;28;20102;-67
2022/09/05 04:42:15;;;;;;;8.65;4.75;;;;;;;-145.67;100.00;66521.78;4918828;28;20422;-67
2022/09/05 04:44:50;;;;;;;9.82;5.13;;;;;;;-145.67;100.00;66521.78;4924612;28;20055;-66
2022/09/05 04:47:36;;;;;;;8.95;5.40;;;;;;;-145.67;100.00;66521.78;4918924;28;20039;-67
2022/09/05 04:50:18;;;;;;;8.40;4.90;;;;;;;-145.67;100.00;66521.78;4902928;28;20050;-66
2022/09/05 04:52:49;;;;;;;9.80;5.18;;;;;;;-145.67;100.00;66521.78;4909554;28;20057;-67
2022/09/05 04:55:31;;;;;;;9.65;5.07;;;;;;;-145.67;100.00;66521.78;4943336;28;20043;-67
2022/09/05 04:57:56;;;;;;;9.35;5.55;;;;;;;-145.67;100.00;66521.78;4941566;28;20566;-67
2022/09/05 05:00:38;;;;;;;7.50;5.40;;;;;;;-145.67;100.00;66521.78;4940447;28;20067;-66
2022/09/05 05:03:12;;;;;;;10.63;6.05;;;;;;;-145.67;100.00;66521.78;4942160;28;20089;-66
2022/09/05 05:05:46;;;;;;;12.02;6.20;;;;;;;-145.67;100.00;66521.78;4925056;28;20035;-67
2022/09/05 05:08:18;;;;;;;10.15;5.40;;;;;;;-145.67;100.00;66521.78;4940947;28;20035;-66
2022/09/05 05:11:02;;;;;;;9.90;5.38;;;;;;;-145.67;100.00;66521.78;4939044;28;20049;-67
2022/09/05 05:13:47;;;;;;;9.98;5.43;;;;;;;-145.67;100.00;66521.78;4924097;28;20527;-67
2022/09/05 05:16:41;;;;;;;10.75;6.22;;;;;;;-145.67;100.00;66521.78;4915593;28;20035;-66
2022/09/05 05:19:30;;;;;;;9.20;5.32;;;;;;;-145.67;100.00;66521.78;4917255;28;20082;-67
2022/09/05 05:21:57;;;;;;;9.15;5.55;;;;;;;-145.67;100.00;66521.78;4939731;28;20082;-67
2022/09/05 05:24:34;;;;;;;9.60;5.57;;;;;;;-145.67;100.00;66521.78;4941992;28;20035;-67
2022/09/05 05:27:14;;;;;;;12.93;6.22;;;;;;;-145.67;100.00;66521.78;4919112;28;20063;-67
2022/09/05 05:29:46;;;;;;;10.80;5.80;;;;;;;-145.67;100.00;66521.78;4940725;28;20097;-66
2022/09/05 05:32:35;;;;;;;11.18;5.53;;;;;;;-145.67;100.00;66521.78;4942816;28;20764;-67
2022/09/05 05:35:08;;;;;;;7.85;5.45;;;;;;;-145.67;100.00;66521.78;4942392;28;20031;-66
2022/09/05 05:37:36;;;;;;;13.13;6.13;;;;;;;-145.67;100.00;66521.78;4941958;28;20062;-66
2022/09/05 05:40:09;;;;;;;15.23;6.85;;;;;;;-145.67;100.00;66521.78;4937712;28;20057;-66
2022/09/05 05:42:37;;;;;;;11.45;6.15;;;;;;;-145.67;100.00;66521.78;4924802;28;20059;-66
2022/09/05 05:45:06;;;;;;;8.10;6.00;;;;;;;-145.67;100.00;66521.78;4921736;28;20139;-67
2022/09/05 05:47:43;;;;;;;10.40;6.35;;;;;;;-145.67;100.00;66521.78;4922178;28;20089;-67
2022/09/05 05:50:32;;;;;;;13.98;6.53;;;;;;;-145.67;100.00;66521.78;4941449;28;20114;-67
2022/09/05 05:53:15;;;;;;;11.10;6.43;;;;;;;-145.67;100.00;66521.78;4925287;28;20047;-67
2022/09/05 05:56:17;;;;;;;11.48;6.03;;;;;;;-145.67;100.00;66521.78;4940041;28;20043;-67
2022/09/05 05:59:07;;;;;;;13.35;6.78;;;;;;;-145.67;100.00;66521.78;4893397;28;20051;-68
2022/09/05 06:01:57;;;;;;;13.18;6.05;;;;;;;-145.67;100.00;66521.78;4935978;28;20045;-67
2022/09/05 06:04:52;;;;;;;12.85;6.72;;;;;;;-145.67;100.00;66521.78;4940569;28;20138;-67
2022/09/05 06:07:42;;;;;;;11.77;6.10;;;;;;;-145.67;100.00;66521.78;4921164;28;20036;-66
2022/09/05 06:10:41;;;;;;;13.20;6.35;;;;;;;-145.67;100.00;66521.78;4940444;28;20961;-67
2022/09/05 06:13:28;;;;;;;15.70;7.60;;;;;;;-145.67;100.00;66521.78;4943637;28;20037;-67
2022/09/05 06:16:31;;;;;;;13.48;6.80;;;;;;;-145.67;100.00;66521.78;4945669;28;20039;-68
2022/09/05 06:19:33;;;;;;;15.43;6.25;;;;;;;-145.67;100.00;66521.78;4944239;28;20039;-68
2022/09/05 06:22:01;;;;;;;16.85;5.65;;;;;;;-145.67;100.00;66521.78;4940283;28;20039;-68
2022/09/05 06:25:15;;;;;;;9.60;5.30;;;;;;;-145.67;100.00;66521.78;4942400;28;20047;-68
2022/09/05 06:27:51;;;;;;;9.48;5.00;;;;;;;-145.67;100.00;66521.78;4930202;28;20851;-70
2022/09/05 06:30:22;;;;;;;10.52;5.70;;;;;;;-145.67;100.00;66521.78;4944493;28;20031;-66
2022/09/05 06:33:15;;;;;;;15.07;6.03;;;;;;;-145.67;100.00;66521.78;4910345;28;20088;-66
2022/09/05 06:36:18;;;;;;;15.63;6.53;;;;;;;-145.67;100.00;66521.78;4943484;28;20045;-65
2022/09/05 06:38:46;;;;;;;9.93;5.78;;;;;;;-145.67;100.00;66521.78;4942742;28;20396;-66
2022/09/05 06:41:45;;;;;;;13.35;5.80;;;;;;;-145.67;100.00;66521.78;4942989;28;20039;-67
2022/09/05 06:44:31;;;;;;;11.20;5.63;;;;;;;-145.67;100.00;66521.78;4943088;28;20050;-66
2022/09/05 06:47:05;;;;;;;16.17;8.60;;;;;;;-145.67;100.00;66521.78;4941959;28;20046;-67
2022/09/05 06:49:39;;;;;;;18.35;8.75;;;;;;;-145.67;100.00;66521.78;4943772;28;20041;-68
2022/09/05 06:52:28;;;;;;;17.17;8.18;;;;;;;-145.67;100.00;66521.78;4942717;28;20099;-67
2022/09/05 06:55:19;;;;;;;11.65;5.63;;;;;;;-145.67;100.00;66521.78;4943027;28;20062;-66
2022/09/05 06:58:16;;;;;;;8.55;4.70;;;;;;;-145.67;100.00;66521.78;4936563;28;20126;-70
2022/09/05 07:00:49;;;;;;;7.03;4.00;;;;;;;-145.67;100.00;66521.78;4925030;28;20035;-68
2022/09/05 07:03:36;;;;;;;8.32;4.40;;;;;;;-145.67;100.00;66521.78;4905680;28;20531;-69
2022/09/05 07:06:32;;;;;;;11.00;4.57;;;;;;;-145.67;100.00;66521.78;4941624;28;20039;-71
2022/09/05 07:09:04;;;;;;;7.13;3.97;;;;;;;-145.67;100.00;66521.78;4941783;28;20757;-67
2022/09/05 07:11:34;;;;;;;10.35;4.47;;;;;;;-145.67;100.00;66521.78;4943463;28;20062;-68
2022/09/05 07:14:02;;;;;;;10.88;5.47;;;;;;;-145.67;100.00;66521.78;4940662;28;20832;-66
2022/09/05 07:16:54;;;;;;;8.10;4.78;;;;;;;-145.67;100.00;66521.78;4941492;28;20775;-67
2022/09/05 07:19:42;;;;;;;7.80;4.50;;;;;;;-145.67;100.00;66521.78;4925173;28;20536;-67
2022/09/05 07:22:16;;;;;;;8.32;4.53;;;;;;;-145.67;100.00;66521.78;4927537;28;20667;-66
2022/09/05 07:24:46;;;;;;;10.52;4.00;;;;;;;-145.67;100.00;66521.78;4944139;28;20686;-67
2022/09/05 07:27:30;;;;;;;12.23;4.97;;;;;;;-145.67;100.00;66521.78;4927099;28;20045;-67
2022/09/05 07:29:57;;;;;;;10.13;4.60;;;;;;;-145.67;100.00;66521.78;4929726;28;20034;-68
2022/09/05 07:32:25;;;;;;;13.10;4.88;;;;;;;-145.67;100.00;66521.78;4928206;28;20276;-66
2022/09/05 07:34:53;;;;;;;13.63;5.37;;;;;;;-145.67;100.00;66521.78;4942878;28;20035;-66
2022/09/05 07:37:25;;;;;;;11.25;5.30;;;;;;;-145.67;100.00;66521.78;4921409;28;20382;-67
2022/09/05 07:40:01;;;;;;;16.02;6.15;;;;;;;-145.67;100.00;66521.78;4941634;28;20046;-66
2022/09/05 07:42:29;;;;;;;13.23;4.60;;;;;;;-145.67;100.00;66521.78;4942500;28;20591;-66
2022/09/05 07:45:09;;;;;;;12.85;4.88;;;;;;;-145.67;100.00;66521.78;4924085;28;20045;-67
2022/09/05 07:47:39;;;;;;;9.52;4.63;;;;;;;-145.67;100.00;66521.78;4941652;28;20105;-67
2022/09/05 07:50:10;;;;;;;10.82;5.45;;;;;;;-145.67;100.00;66521.78;4940261;28;20046;-65
2022/09/05 07:52:44;;;;;;;9.57;4.65;;;;;;;-145.67;100.00;66521.78;4909484;28;20034;-67
2022/09/05 07:55:26;;;;;;;9.63;4.28;;;;;;;-145.67;100.00;66521.78;4927159;28;20093;-67
2022/09/05 07:57:54;;;;;;;9.18;4.20;;;;;;;-145.67;100.00;66521.78;4941362;28;20758;-67
2022/09/05 08:00:22;;;;;;;6.38;3.53;;;;;;;-145.67;100.00;66521.78;4940176;28;21911;-68
2022/09/05 08:02:48;;;;;;;7.07;3.33;;;;;;;-145.67;100.00;66521.78;4921187;28;20105;-66
2022/09/05 08:05:15;;;;;;;5.13;2.90;;;;;;;-145.67;100.00;66521.78;4924332;28;20047;-66
2022/09/05 08:07:43;;;;;;;7.20;3.67;;;;;;;-145.67;100.00;66521.78;4941621;28;20123;-66
2022/09/05 08:10:19;;;;;;;7.90;3.45;;;;;;;-145.67;100.00;66521.78;4941464;28;20127;-66
2022/09/05 08:13:08;;;;;;;6.68;3.20;;;;;;;-145.67;100.00;66521.78;4926368;28;20070;-67
2022/09/05 08:15:38;;;;;;;6.38;3.45;;;;;;;-145.67;100.00;66521.78;4898989;28;20034;-67
2022/09/05 08:18:11;;;;;;;5.65;2.83;;;;;;;-145.67;100.00;66521.78;4939863;28;20042;-66
2022/09/05 08:20:36;;;;;;;7.68;3.50;;;;;;;-145.67;100.00;66521.78;4936537;28;20042;-66
2022/09/05 08:23:06;;;;;;;10.20;3.30;;;;;;;-145.67;100.00;66521.78;4942787;28;20307;-66
2022/09/05 08:25:37;;;;;;;10.77;3.95;;;;;;;-145.67;100.00;66521.78;4920661;28;20295;-66
2022/09/05 08:28:09;;;;;;;10.65;5.13;;;;;;;-145.67;100.00;66521.78;4938380;28;20054;-65
2022/09/05 08:30:43;;;;;;;9.55;4.43;;;;;;;-145.67;100.00;66521.78;4942111;28;20146;-66
2022/09/05 08:33:21;;;;;;;9.85;4.93;;;;;;;-145.67;100.00;66521.78;4937893;28;20038;-66
2022/09/05 08:35:51;;;;;;;12.52;5.20;;;;;;;-145.67;100.00;66521.78;4918188;28;20591;-69
2022/09/05 08:38:19;;;;;;;10.27;4.57;;;;;;;-145.67;100.00;66521.78;4937156;28;20045;-67
2022/09/05 08:41:07;;;;;;;11.18;4.70;;;;;;;-145.67;100.00;66521.78;4934543;28;21010;-68
2022/09/05 08:44:06;;;;;;;11.88;5.53;;;;;;;-145.67;100.00;66521.78;4943047;28;20970;-68
2022/09/05 08:46:36;;;;;;;8.00;4.30;;;;;;;-145.67;100.00;66521.78;4937171;28;20038;-68
2022/09/05 08:49:32;;;;;;;10.05;4.10;;;;;;;-145.67;100.00;66521.78;4926949;28;20443;-69
2022/09/05 08:52:17;;;;;;;9.60;3.58;;;;;;;-145.67;100.00;66521.78;4942908;28;20407;-69
2022/09/05 08:54:45;;;;;;;8.82;3.10;;;;;;;-145.67;100.00;66521.78;4928818;28;20467;-68
2022/09/05 08:57:59;;;;;;;9.45;3.20;;;;;;;-145.67;100.00;66521.78;4940913;28;20039;-68
2022/09/05 09:00:36;;;;;;;6.28;3.08;;;;;;;-145.67;100.00;66521.78;4938273;28;20101;-68
2022/09/05 09:03:10;;;;;;;8.80;2.60;;;;;;;-145.67;100.00;66521.78;4937184;28;20291;-68
2022/09/05 09:05:47;;;;;;;8.15;3.60;;;;;;;-145.67;100.00;66521.78;4933561;28;20054;-69
2022/09/05 09:08:19;;;;;;;9.75;4.45;;;;;;;-145.67;100.00;66521.78;4941504;28;20041;-71
2022/09/05 09:11:05;;;;;;;10.15;4.35;;;;;;;-145.67;100.00;66521.78;4929775;28;20039;-70
2022/09/05 09:13:51;;;;;;;11.73;4.38;;;;;;;-145.67;100.00;66521.78;4940753;28;20055;-70
2022/09/05 09:16:39;;;;;;;8.88;3.10;;;;;;;-145.67;100.00;66521.78;4935233;28;20039;-69
2022/09/05 09:19:34;;;;;;;8.38;3.17;;;;;;;-145.67;100.00;66521.78;4935851;28;20042;-71
2022/09/05 09:22:08;;;;;;;7.68;2.70;;;;;;;-145.67;100.00;66521.78;4939782;28;20069;-70
2022/09/05 09:25:01;;;;;;;8.48;2.58;;;;;;;-145.67;100.00;66521.78;4934707;28;20146;-72
2022/09/05 09:28:05;;;;;;;6.57;2.50;;;;;;;-145.67;100.00;66521.78;4915924;28;20035;-70
2022/09/05 09:30:33;;;;;;;7.75;3.05;;;;;;;-145.67;100.00;66521.78;4903045;28;20058;-70
2022/09/05 09:33:05;;;;;;;9.85;2.83;;;;;;;-145.67;100.00;66521.78;4931323;28;20098;-70
2022/09/05 09:35:36;;;;;;;8.02;2.80;;;;;;;-145.67;100.00;66521.78;4916949;28;20703;-70
2022/09/05 09:38:20;;;;;;;;;;;;;;;-145.67;100.00;66521.78;4937921;28;20105;-69
2022/09/05 09:41:09;;;;;;;11.07;3.40;;;;;;;-145.67;100.00;66521.78;4939300;28;19922;-70
2022/09/05 09:44:00;;;;;;;6.78;3.90;;;;;;;-145.67;100.00;66521.78;4941928;28;20145;-69
2022/09/05 09:46:42;;;;;;;6.38;2.70;;;;;;;-145.67;100.00;66521.78;4942722;28;20031;-69
2022/09/05 09:49:34;;;;;;;10.98;3.80;;;;;;;-145.67;100.00;66521.78;4942340;28;20082;-69
2022/09/05 09:52:14;;;;;;;8.10;3.20;;;;;;;-145.67;100.00;66521.78;4926271;28;20034;-70
2022/09/05 09:55:07;;;;;;;7.95;3.60;;;;;;;-145.67;100.00;66521.78;4928931;28;20570;-71
2022/09/05 09:58:09;;;;;;;7.32;2.80;;;;;;;-145.67;100.00;66521.78;4926595;28;20130;-69
2022/09/05 10:01:07;;;;;;;6.47;2.67;;;;;;;-145.67;100.00;66521.78;4943784;28;20034;-69
2022/09/05 10:03:43;;;;;;;6.78;3.35;;;;;;;-145.67;100.00;66521.78;4940476;28;20763;-70
2022/09/05 10:06:30;;;;;;;9.35;2.53;;;;;;;-145.67;100.00;66521.78;4924726;28;20046;-69
2022/09/05 10:09:20;;;;;;;6.45;2.90;;;;;;;-145.67;100.00;66521.78;4943443;28;22165;-69
2022/09/05 10:11:55;;;;;;;10.07;3.05;;;;;;;-145.67;100.00;66521.78;4924880;28;20117;-69
2022/09/05 10:14:44;;;;;;;15.07;3.10;;;;;;;-145.67;100.00;66521.78;4941649;28;20073;-69
2022/09/05 10:17:28;;;;;;;9.35;2.55;;;;;;;-145.67;100.00;66521.78;4944426;28;20034;-67
2022/09/05 10:20:21;;;;;;;10.00;3.17;;;;;;;-145.67;100.00;66521.78;4944839;28;20039;-68
2022/09/05 10:23:00;;;;;;;15.27;3.78;;;;;;;-145.67;100.00;66521.78;4945393;28;20109;-68
2022/09/05 10:25:50;;;;;;;14.13;3.88;;;;;;;-145.67;100.00;66521.78;4926928;28;20035;-70
2022/09/05 10:28:32;;;;;;;10.45;2.72;;;;;;;-145.67;100.00;66521.78;4945014;28;20128;-69
2022/09/05 10:31:13;;;;;;;8.35;2.13;;;;;;;-145.67;100.00;66521.78;4924145;28;20546;-68
2022/09/05 10:33:55;;;;;;;8.45;1.95;;;;;;;-145.67;100.00;66521.78;4921650;28;20042;-70
2022/09/05 10:36:30;;;;;;;11.43;2.22;;;;;;;-145.67;100.00;66521.78;4940666;28;20083;-72
2022/09/05 10:39:17;;;;;;;7.75;2.50;;;;;;;-145.67;100.00;66521.78;4944047;28;20042;-70
2022/09/05 10:41:50;;;;;;;4.93;1.70;;;;;;;-145.67;100.00;66521.78;4923880;28;20036;-74
2022/09/05 10:44:39;;;;;;;11.05;3.05;;;;;;;-145.67;100.00;66521.78;4926360;28;20523;-69
2022/09/05 10:47:32;;;;;;;8.85;2.90;;;;;;;-145.67;100.00;66521.78;4923912;28;20035;-70
2022/09/05 10:50:12;;;;;;;11.60;3.72;;;;;;;-145.67;100.00;66521.78;4941852;28;20035;-69
2022/09/05 10:52:51;;;;;;;6.65;2.63;;;;;;;-145.67;100.00;66521.78;4910426;28;20308;-69
2022/09/05 10:55:24;;;;;;;7.38;2.10;;;;;;;-145.67;100.00;66521.78;4928231;28;20229;-70
2022/09/05 10:58:14;;;;;;;7.65;2.88;;;;;;;-145.67;100.00;66521.78;4938863;28;20057;-68
2022/09/05 11:00:46;;;;;;;7.38;1.60;;;;;;;-145.67;100.00;66521.78;4941340;28;20125;-66
2022/09/05 11:03:15;;;;;;;8.05;1.80;;;;;;;-145.67;100.00;66521.78;4925338;28;20057;-65
2022/09/05 11:05:50;;;;;;;5.95;2.60;;;;;;;-145.67;100.00;66521.78;4939838;28;20031;-65
2022/09/05 11:08:46;;;;;;;8.68;2.90;;;;;;;-145.67;100.00;66521.78;4938989;28;20550;-65
2022/09/05 11:11:19;;;;;;;8.00;3.28;;;;;;;-145.67;100.00;66521.78;4937273;28;20031;-65
2022/09/05 11:13:55;;;;;;;10.60;3.25;;;;;;;-145.67;100.00;66521.78;4939860;28;20046;-66
2022/09/05 11:16:37;;;;;;;9.52;3.53;;;;;;;-145.67;100.00;66521.78;4924881;28;20027;-65
2022/09/05 11:19:08;;;;;;;6.07;2.80;;;;;;;-145.67;100.00;66521.78;4923039;28;20779;-66
2022/09/05 11:22:05;;;;;;;4.30;1.55;;;;;;;-145.67;100.00;66521.78;4937710;28;20038;-67
2022/09/05 11:24:35;;;;;;;7.45;2.20;;;;;;;-145.67;100.00;66521.78;4939286;28;20092;-67
2022/09/05 11:27:09;;;;;;;9.07;2.60;;;;;;;-145.67;100.00;66521.78;4943540;28;20037;-66
2022/09/05 11:29:45;;;;;;;5.13;1.60;;;;;;;-145.67;100.00;66521.78;4944547;28;20050;-67
2022/09/05 11:32:17;;;;;;;13.27;2.05;;;;;;;-145.67;100.00;66521.78;4942300;28;20038;-65
2022/09/05 11:34:45;;;;;;;7.30;2.00;;;;;;;-145.67;100.00;66521.78;4941983;28;20421;-65
2022/09/05 11:37:23;;;;;;;6.13;1.77;;;;;;;-145.67;100.00;66521.78;4944946;28;20553;-67
2022/09/05 11:40:26;;;;;;;5.95;1.88;;;;;;;-145.67;100.00;66521.78;4923985;28;20043;-67
2022/09/05 11:43:23;;;;;;;6.65;2.17;;;;;;;-145.67;100.00;66521.78;4942130;28;20065;-66
2022/09/05 11:46:35;;;;;;;6.93;2.60;;;;;;;-145.67;100.00;66521.78;4944740;28;20070;-65
2022/09/05 11:49:21;;;;;;;4.90;1.98;;;;;;;-145.67;100.00;66521.78;4926506;28;20039;-66
2022/09/05 11:52:02;;;;;;;6.03;2.00;;;;;;;-145.67;100.00;66521.78;4942734;28;20129;-65
2022/09/05 11:54:53;;;;;;;5.60;2.20;;;;;;;-145.67;100.00;66521.78;4943591;28;20058;-66
2022/09/05 11:57:45;;;;;;;8.50;2.75;;;;;;;-145.67;100.00;66521.78;4943298;28;20470;-66
2022/09/05 12:00:42;;;;;;;9.38;3.00;;;;;;;-145.67;100.00;66521.78;4939060;28;20087;-66
2022/09/05 12:03:40;;;;;;;6.15;3.15;;;;;;;-145.67;100.00;66521.78;4922106;28;20047;-65
2022/09/05 12:06:18;;;;;;;6.30;2.30;;;;;;;-145.67;100.00;66521.78;4922863;28;20463;-66
2022/09/05 12:08:58;;;;;;;6.20;2.10;;;;;;;-145.67;100.00;66521.78;4920908;28;20133;-65
2022/09/05 12:11:47;;;;;;;6.70;2.85;;;;;;;-145.67;100.00;66521.78;4942786;28;20740;-65